sensor_id;sensor_type;location;lat;lon;timestamp;P1;durP1;ratioP1;P2;durP2;ratioP2
2538;SDS011;1280;49.760;9.664;2023-02-27T00:00:52;25.42;;;7.38;;
2538;SDS011;1280;49.760;9.664;2023-02-27T00:03:21;26.00;;;8.00;;
2538;SDS011;1280;49.760;9.664;2023-02-27T00:05:50;28.02;;;9.80;;
2538;SDS011;1280;49.760;9.664;2023-02-27T00:08:18;20.58;;;8.50;;
2538;SDS011;1280;49.760;9.664;2023-02-27T00:10:46;23.25;;;9.38;;
2538;SDS011;1280;49.760;9.664;2023-02-27T00:13:14;22.05;;;8.60;;
2538;SDS011;1280;49.760;9.664;2023-02-27T00:15:43;22.73;;;9.23;;
2538;SDS011;1280;49.760;9.664;2023-02-27T00:18:12;16.02;;;5.97;;
2538;SDS011;1280;49.760;9.664;2023-02-27T00:20:40;25.15;;;7.75;;
2538;SDS011;1280;49.760;9.664;2023-02-27T00:23:10;25.35;;;9.45;;
2538;SDS011;1280;49.760;9.664;2023-02-27T00:25:38;28.15;;;9.95;;
2538;SDS011;1280;49.760;9.664;2023-02-27T00:28:06;24.25;;;8.05;;
2538;SDS011;1280;49.760;9.664;2023-02-27T00:30:38;29.73;;;9.35;;
2538;SDS011;1280;49.760;9.664;2023-02-27T00:33:06;15.88;;;7.05;;
2538;SDS011;1280;49.760;9.664;2023-02-27T00:35:35;21.50;;;6.57;;
2538;SDS011;1280;49.760;9.664;2023-02-27T00:38:02;26.83;;;9.20;;
2538;SDS011;1280;49.760;9.664;2023-02-27T00:40:32;25.00;;;7.38;;
2538;SDS011;1280;49.760;9.664;2023-02-27T00:43:02;20.33;;;5.35;;
2538;SDS011;1280;49.760;9.664;2023-02-27T00:45:31;12.10;;;5.40;;
2538;SDS011;1280;49.760;9.664;2023-02-27T00:48:00;15.80;;;7.45;;
2538;SDS011;1280;49.760;9.664;2023-02-27T00:50:28;18.27;;;6.72;;
2538;SDS011;1280;49.760;9.664;2023-02-27T00:52:56;20.67;;;7.55;;
2538;SDS011;1280;49.760;9.664;2023-02-27T00:55:24;28.55;;;10.18;;
2538;SDS011;1280;49.760;9.664;2023-02-27T00:57:54;16.80;;;6.10;;
2538;SDS011;1280;49.760;9.664;2023-02-27T01:00:22;18.15;;;7.63;;
2538;SDS011;1280;49.760;9.664;2023-02-27T01:02:51;10.85;;;4.20;;
2538;SDS011;1280;49.760;9.664;2023-02-27T01:05:19;23.08;;;9.50;;
2538;SDS011;1280;49.760;9.664;2023-02-27T01:07:47;11.77;;;5.30;;
2538;SDS011;1280;49.760;9.664;2023-02-27T01:10:15;12.82;;;5.20;;
2538;SDS011;1280;49.760;9.664;2023-02-27T01:12:43;10.20;;;4.55;;
2538;SDS011;1280;49.760;9.664;2023-02-27T01:15:12;12.15;;;5.60;;
2538;SDS011;1280;49.760;9.664;2023-02-27T01:17:41;11.68;;;4.65;;
2538;SDS011;1280;49.760;9.664;2023-02-27T01:20:09;18.70;;;6.28;;
2538;SDS011;1280;49.760;9.664;2023-02-27T01:22:41;21.48;;;8.18;;
2538;SDS011;1280;49.760;9.664;2023-02-27T01:25:11;16.10;;;6.60;;
2538;SDS011;1280;49.760;9.664;2023-02-27T01:27:40;15.15;;;6.35;;
2538;SDS011;1280;49.760;9.664;2023-02-27T01:30:09;32.53;;;11.40;;
2538;SDS011;1280;49.760;9.664;2023-02-27T01:32:52;12.75;;;5.15;;
2538;SDS011;1280;49.760;9.664;2023-02-27T01:35:20;9.63;;;4.93;;
2538;SDS011;1280;49.760;9.664;2023-02-27T01:37:48;19.10;;;7.05;;
2538;SDS011;1280;49.760;9.664;2023-02-27T01:40:15;10.75;;;4.60;;
2538;SDS011;1280;49.760;9.664;2023-02-27T01:45:28;19.17;;;6.00;;
2538;SDS011;1280;49.760;9.664;2023-02-27T01:48:02;6.85;;;2.72;;
2538;SDS011;1280;49.760;9.664;2023-02-27T01:50:38;19.08;;;7.38;;
2538;SDS011;1280;49.760;9.664;2023-02-27T01:53:10;18.75;;;7.60;;
2538;SDS011;1280;49.760;9.664;2023-02-27T01:55:38;9.52;;;4.45;;
2538;SDS011;1280;49.760;9.664;2023-02-27T01:58:07;18.10;;;6.38;;
2538;SDS011;1280;49.760;9.664;2023-02-27T02:00:37;16.63;;;6.50;;
2538;SDS011;1280;49.760;9.664;2023-02-27T02:03:10;14.32;;;6.03;;
2538;SDS011;1280;49.760;9.664;2023-02-27T02:05:43;10.50;;;4.43;;
2538;SDS011;1280;49.760;9.664;2023-02-27T02:08:13;11.93;;;4.60;;
2538;SDS011;1280;49.760;9.664;2023-02-27T02:10:44;15.98;;;5.70;;
2538;SDS011;1280;49.760;9.664;2023-02-27T02:13:15;14.25;;;5.65;;
2538;SDS011;1280;49.760;9.664;2023-02-27T02:15:46;14.38;;;5.75;;
2538;SDS011;1280;49.760;9.664;2023-02-27T02:18:24;9.93;;;4.30;;
2538;SDS011;1280;49.760;9.664;2023-02-27T02:21:15;12.23;;;5.40;;
2538;SDS011;1280;49.760;9.664;2023-02-27T02:24:28;11.30;;;5.20;;
2538;SDS011;1280;49.760;9.664;2023-02-27T02:27:19;13.40;;;4.78;;
2538;SDS011;1280;49.760;9.664;2023-02-27T02:30:04;10.18;;;3.65;;
2538;SDS011;1280;49.760;9.664;2023-02-27T02:36:33;10.55;;;5.90;;
2538;SDS011;1280;49.760;9.664;2023-02-27T02:39:30;15.60;;;5.72;;
2538;SDS011;1280;49.760;9.664;2023-02-27T02:42:16;15.25;;;6.45;;
2538;SDS011;1280;49.760;9.664;2023-02-27T02:44:52;12.07;;;5.65;;
2538;SDS011;1280;49.760;9.664;2023-02-27T02:47:30;12.93;;;5.20;;
2538;SDS011;1280;49.760;9.664;2023-02-27T02:50:05;8.88;;;4.05;;
2538;SDS011;1280;49.760;9.664;2023-02-27T02:52:42;13.35;;;5.30;;
2538;SDS011;1280;49.760;9.664;2023-02-27T02:55:20;7.30;;;3.80;;
2538;SDS011;1280;49.760;9.664;2023-02-27T02:57:54;9.50;;;5.20;;
2538;SDS011;1280;49.760;9.664;2023-02-27T03:00:29;9.55;;;4.45;;
2538;SDS011;1280;49.760;9.664;2023-02-27T03:03:04;12.40;;;5.07;;
2538;SDS011;1280;49.760;9.664;2023-02-27T03:08:11;7.80;;;4.47;;
2538;SDS011;1280;49.760;9.664;2023-02-27T03:10:47;8.25;;;3.90;;
2538;SDS011;1280;49.760;9.664;2023-02-27T03:13:20;6.43;;;3.85;;
2538;SDS011;1280;49.760;9.664;2023-02-27T03:15:53;5.70;;;3.10;;
2538;SDS011;1280;49.760;9.664;2023-02-27T03:18:23;6.05;;;2.85;;
2538;SDS011;1280;49.760;9.664;2023-02-27T03:20:54;7.35;;;3.50;;
2538;SDS011;1280;49.760;9.664;2023-02-27T03:23:26;6.88;;;3.10;;
2538;SDS011;1280;49.760;9.664;2023-02-27T03:25:58;7.88;;;3.55;;
2538;SDS011;1280;49.760;9.664;2023-02-27T03:28:29;4.80;;;2.85;;
2538;SDS011;1280;49.760;9.664;2023-02-27T03:30:59;5.45;;;2.53;;
2538;SDS011;1280;49.760;9.664;2023-02-27T03:33:37;5.63;;;3.25;;
2538;SDS011;1280;49.760;9.664;2023-02-27T03:36:10;11.38;;;4.60;;
2538;SDS011;1280;49.760;9.664;2023-02-27T03:38:47;12.52;;;3.80;;
2538;SDS011;1280;49.760;9.664;2023-02-27T03:41:23;10.18;;;3.20;;
2538;SDS011;1280;49.760;9.664;2023-02-27T03:44:13;7.03;;;3.30;;
2538;SDS011;1280;49.760;9.664;2023-02-27T03:46:51;8.52;;;3.95;;
2538;SDS011;1280;49.760;9.664;2023-02-27T03:49:20;7.97;;;3.83;;
2538;SDS011;1280;49.760;9.664;2023-02-27T03:51:48;9.55;;;3.65;;
2538;SDS011;1280;49.760;9.664;2023-02-27T03:54:18;6.53;;;2.50;;
2538;SDS011;1280;49.760;9.664;2023-02-27T03:56:51;8.65;;;3.90;;
2538;SDS011;1280;49.760;9.664;2023-02-27T03:59:25;13.10;;;3.75;;
2538;SDS011;1280;49.760;9.664;2023-02-27T04:01:55;6.75;;;3.00;;
2538;SDS011;1280;49.760;9.664;2023-02-27T04:04:25;18.10;;;5.40;;
2538;SDS011;1280;49.760;9.664;2023-02-27T04:07:10;10.00;;;3.53;;
2538;SDS011;1280;49.760;9.664;2023-02-27T04:09:57;12.23;;;4.15;;
2538;SDS011;1280;49.760;9.664;2023-02-27T04:12:47;9.32;;;3.50;;
2538;SDS011;1280;49.760;9.664;2023-02-27T04:15:37;10.20;;;4.85;;
2538;SDS011;1280;49.760;9.664;2023-02-27T04:18:21;5.80;;;3.08;;
2538;SDS011;1280;49.760;9.664;2023-02-27T04:20:56;4.53;;;2.47;;
2538;SDS011;1280;49.760;9.664;2023-02-27T04:23:29;6.50;;;2.88;;
2538;SDS011;1280;49.760;9.664;2023-02-27T04:26:08;5.70;;;2.53;;
2538;SDS011;1280;49.760;9.664;2023-02-27T04:28:44;5.95;;;2.42;;
2538;SDS011;1280;49.760;9.664;2023-02-27T04:31:20;8.43;;;3.42;;
2538;SDS011;1280;49.760;9.664;2023-02-27T04:33:53;4.22;;;2.50;;
2538;SDS011;1280;49.760;9.664;2023-02-27T04:36:27;5.10;;;2.35;;
2538;SDS011;1280;49.760;9.664;2023-02-27T04:39:02;8.25;;;2.83;;
2538;SDS011;1280;49.760;9.664;2023-02-27T04:41:35;4.65;;;2.30;;
2538;SDS011;1280;49.760;9.664;2023-02-27T04:44:08;6.22;;;2.40;;
2538;SDS011;1280;49.760;9.664;2023-02-27T04:46:39;7.70;;;2.80;;
2538;SDS011;1280;49.760;9.664;2023-02-27T04:49:10;5.93;;;2.25;;
2538;SDS011;1280;49.760;9.664;2023-02-27T04:51:44;5.43;;;2.83;;
2538;SDS011;1280;49.760;9.664;2023-02-27T04:54:18;4.60;;;2.50;;
2538;SDS011;1280;49.760;9.664;2023-02-27T04:56:51;7.07;;;2.35;;
2538;SDS011;1280;49.760;9.664;2023-02-27T04:59:23;3.95;;;2.00;;
2538;SDS011;1280;49.760;9.664;2023-02-27T05:01:55;7.13;;;2.47;;
2538;SDS011;1280;49.760;9.664;2023-02-27T05:04:26;6.60;;;2.63;;
2538;SDS011;1280;49.760;9.664;2023-02-27T05:06:57;5.57;;;3.05;;
2538;SDS011;1280;49.760;9.664;2023-02-27T05:09:30;11.35;;;4.35;;
2538;SDS011;1280;49.760;9.664;2023-02-27T05:12:04;7.18;;;4.35;;
2538;SDS011;1280;49.760;9.664;2023-02-27T05:14:43;12.13;;;6.30;;
2538;SDS011;1280;49.760;9.664;2023-02-27T05:17:16;18.20;;;8.15;;
2538;SDS011;1280;49.760;9.664;2023-02-27T05:19:47;13.00;;;6.68;;
2538;SDS011;1280;49.760;9.664;2023-02-27T05:22:20;10.30;;;5.68;;
2538;SDS011;1280;49.760;9.664;2023-02-27T05:24:57;13.30;;;7.03;;
2538;SDS011;1280;49.760;9.664;2023-02-27T05:27:30;10.68;;;6.43;;
2538;SDS011;1280;49.760;9.664;2023-02-27T05:30:04;12.20;;;5.50;;
2538;SDS011;1280;49.760;9.664;2023-02-27T05:32:38;9.70;;;5.60;;
2538;SDS011;1280;49.760;9.664;2023-02-27T05:35:11;16.98;;;7.55;;
2538;SDS011;1280;49.760;9.664;2023-02-27T05:37:45;21.50;;;11.63;;
2538;SDS011;1280;49.760;9.664;2023-02-27T05:40:18;22.42;;;10.23;;
2538;SDS011;1280;49.760;9.664;2023-02-27T05:42:51;17.55;;;8.90;;
2538;SDS011;1280;49.760;9.664;2023-02-27T05:45:26;10.27;;;5.28;;
2538;SDS011;1280;49.760;9.664;2023-02-27T05:47:57;11.05;;;3.97;;
2538;SDS011;1280;49.760;9.664;2023-02-27T05:50:29;6.20;;;2.88;;
2538;SDS011;1280;49.760;9.664;2023-02-27T05:53:01;9.77;;;4.70;;
2538;SDS011;1280;49.760;9.664;2023-02-27T05:55:31;8.63;;;3.92;;
2538;SDS011;1280;49.760;9.664;2023-02-27T05:58:05;12.85;;;6.15;;
2538;SDS011;1280;49.760;9.664;2023-02-27T06:00:42;12.68;;;5.53;;
2538;SDS011;1280;49.760;9.664;2023-02-27T06:03:13;31.67;;;13.20;;
2538;SDS011;1280;49.760;9.664;2023-02-27T06:05:42;18.95;;;8.52;;
2538;SDS011;1280;49.760;9.664;2023-02-27T06:08:10;42.78;;;16.40;;
2538;SDS011;1280;49.760;9.664;2023-02-27T06:10:38;41.40;;;16.55;;
2538;SDS011;1280;49.760;9.664;2023-02-27T06:13:06;39.85;;;16.80;;
2538;SDS011;1280;49.760;9.664;2023-02-27T06:15:34;11.70;;;6.53;;
2538;SDS011;1280;49.760;9.664;2023-02-27T06:18:03;20.05;;;9.98;;
2538;SDS011;1280;49.760;9.664;2023-02-27T06:20:31;22.08;;;11.75;;
2538;SDS011;1280;49.760;9.664;2023-02-27T06:22:59;21.83;;;11.52;;
2538;SDS011;1280;49.760;9.664;2023-02-27T06:28:15;22.13;;;10.77;;
2538;SDS011;1280;49.760;9.664;2023-02-27T06:30:43;16.27;;;8.45;;
2538;SDS011;1280;49.760;9.664;2023-02-27T06:33:13;12.30;;;6.00;;
2538;SDS011;1280;49.760;9.664;2023-02-27T06:35:41;8.60;;;5.25;;
2538;SDS011;1280;49.760;9.664;2023-02-27T06:38:09;9.73;;;4.47;;
2538;SDS011;1280;49.760;9.664;2023-02-27T06:40:37;6.78;;;3.95;;
2538;SDS011;1280;49.760;9.664;2023-02-27T06:43:07;6.22;;;3.60;;
2538;SDS011;1280;49.760;9.664;2023-02-27T06:45:35;13.23;;;5.72;;
2538;SDS011;1280;49.760;9.664;2023-02-27T06:48:03;5.95;;;3.90;;
2538;SDS011;1280;49.760;9.664;2023-02-27T06:50:32;6.90;;;4.53;;
2538;SDS011;1280;49.760;9.664;2023-02-27T06:53:06;11.85;;;5.35;;
2538;SDS011;1280;49.760;9.664;2023-02-27T06:55:34;7.35;;;4.75;;
2538;SDS011;1280;49.760;9.664;2023-02-27T06:58:02;7.65;;;4.80;;
2538;SDS011;1280;49.760;9.664;2023-02-27T07:00:30;10.77;;;5.18;;
2538;SDS011;1280;49.760;9.664;2023-02-27T07:02:58;10.60;;;3.78;;
2538;SDS011;1280;49.760;9.664;2023-02-27T07:05:29;9.68;;;3.45;;
2538;SDS011;1280;49.760;9.664;2023-02-27T07:07:59;14.32;;;6.57;;
2538;SDS011;1280;49.760;9.664;2023-02-27T07:10:28;12.63;;;5.38;;
2538;SDS011;1280;49.760;9.664;2023-02-27T07:12:56;14.60;;;5.05;;
2538;SDS011;1280;49.760;9.664;2023-02-27T07:15:24;10.90;;;6.25;;
2538;SDS011;1280;49.760;9.664;2023-02-27T07:17:52;10.07;;;3.92;;
2538;SDS011;1280;49.760;9.664;2023-02-27T07:20:20;8.77;;;5.22;;
2538;SDS011;1280;49.760;9.664;2023-02-27T07:22:48;9.10;;;3.33;;
2538;SDS011;1280;49.760;9.664;2023-02-27T07:25:18;6.75;;;3.40;;
2538;SDS011;1280;49.760;9.664;2023-02-27T07:27:46;5.15;;;2.70;;
2538;SDS011;1280;49.760;9.664;2023-02-27T07:30:16;5.25;;;2.50;;
2538;SDS011;1280;49.760;9.664;2023-02-27T07:32:44;9.00;;;3.30;;
2538;SDS011;1280;49.760;9.664;2023-02-27T07:37:51;7.20;;;3.55;;
2538;SDS011;1280;49.760;9.664;2023-02-27T07:40:20;9.70;;;3.60;;
2538;SDS011;1280;49.760;9.664;2023-02-27T07:42:48;6.93;;;3.60;;
2538;SDS011;1280;49.760;9.664;2023-02-27T07:45:18;7.13;;;3.25;;
2538;SDS011;1280;49.760;9.664;2023-02-27T07:47:47;10.23;;;3.25;;
2538;SDS011;1280;49.760;9.664;2023-02-27T07:50:17;5.95;;;3.20;;
2538;SDS011;1280;49.760;9.664;2023-02-27T07:52:45;6.28;;;3.78;;
2538;SDS011;1280;49.760;9.664;2023-02-27T07:55:13;4.80;;;2.90;;
2538;SDS011;1280;49.760;9.664;2023-02-27T07:57:42;6.93;;;3.30;;
2538;SDS011;1280;49.760;9.664;2023-02-27T08:00:11;6.05;;;3.58;;
2538;SDS011;1280;49.760;9.664;2023-02-27T08:02:39;9.50;;;3.28;;
2538;SDS011;1280;49.760;9.664;2023-02-27T08:05:07;10.50;;;3.00;;
2538;SDS011;1280;49.760;9.664;2023-02-27T08:07:35;6.63;;;3.40;;
2538;SDS011;1280;49.760;9.664;2023-02-27T08:10:04;5.68;;;3.22;;
2538;SDS011;1280;49.760;9.664;2023-02-27T08:12:32;10.70;;;4.72;;
2538;SDS011;1280;49.760;9.664;2023-02-27T08:15:02;9.02;;;4.13;;
2538;SDS011;1280;49.760;9.664;2023-02-27T08:17:31;11.98;;;5.00;;
2538;SDS011;1280;49.760;9.664;2023-02-27T08:19:59;10.02;;;5.18;;
2538;SDS011;1280;49.760;9.664;2023-02-27T08:22:27;5.75;;;3.00;;
2538;SDS011;1280;49.760;9.664;2023-02-27T08:24:55;6.45;;;3.80;;
2538;SDS011;1280;49.760;9.664;2023-02-27T08:27:23;8.00;;;3.00;;
2538;SDS011;1280;49.760;9.664;2023-02-27T08:29:51;6.28;;;3.20;;
2538;SDS011;1280;49.760;9.664;2023-02-27T08:32:20;11.45;;;4.53;;
2538;SDS011;1280;49.760;9.664;2023-02-27T08:34:48;4.88;;;2.95;;
2538;SDS011;1280;49.760;9.664;2023-02-27T08:37:16;7.47;;;3.45;;
2538;SDS011;1280;49.760;9.664;2023-02-27T08:39:45;6.22;;;2.95;;
2538;SDS011;1280;49.760;9.664;2023-02-27T08:42:14;7.65;;;4.10;;
2538;SDS011;1280;49.760;9.664;2023-02-27T08:44:41;5.00;;;3.10;;
2538;SDS011;1280;49.760;9.664;2023-02-27T08:47:10;5.85;;;3.55;;
2538;SDS011;1280;49.760;9.664;2023-02-27T08:49:39;9.30;;;4.45;;
2538;SDS011;1280;49.760;9.664;2023-02-27T08:52:07;8.80;;;4.32;;
2538;SDS011;1280;49.760;9.664;2023-02-27T08:54:35;7.63;;;4.35;;
2538;SDS011;1280;49.760;9.664;2023-02-27T08:57:03;7.22;;;3.50;;
2538;SDS011;1280;49.760;9.664;2023-02-27T08:59:31;5.95;;;3.08;;
2538;SDS011;1280;49.760;9.664;2023-02-27T09:01:59;5.82;;;3.38;;
2538;SDS011;1280;49.760;9.664;2023-02-27T09:04:27;13.63;;;4.47;;
2538;SDS011;1280;49.760;9.664;2023-02-27T09:06:56;14.68;;;5.45;;
2538;SDS011;1280;49.760;9.664;2023-02-27T09:09:24;7.90;;;4.30;;
2538;SDS011;1280;49.760;9.664;2023-02-27T09:11:52;9.60;;;4.07;;
2538;SDS011;1280;49.760;9.664;2023-02-27T09:14:20;5.28;;;3.35;;
2538;SDS011;1280;49.760;9.664;2023-02-27T09:17:27;11.35;;;3.58;;
2538;SDS011;1280;49.760;9.664;2023-02-27T09:19:38;5.13;;;3.53;;
2538;SDS011;1280;49.760;9.664;2023-02-27T09:22:07;8.30;;;4.38;;
2538;SDS011;1280;49.760;9.664;2023-02-27T09:24:35;14.98;;;6.43;;
2538;SDS011;1280;49.760;9.664;2023-02-27T09:27:03;13.10;;;5.43;;
2538;SDS011;1280;49.760;9.664;2023-02-27T09:29:37;8.80;;;4.80;;
2538;SDS011;1280;49.760;9.664;2023-02-27T09:32:04;4.90;;;3.13;;
2538;SDS011;1280;49.760;9.664;2023-02-27T09:34:33;6.47;;;3.70;;
2538;SDS011;1280;49.760;9.664;2023-02-27T09:37:01;8.57;;;4.55;;
2538;SDS011;1280;49.760;9.664;2023-02-27T09:42:14;8.30;;;3.90;;
2538;SDS011;1280;49.760;9.664;2023-02-27T09:44:45;6.30;;;3.97;;
2538;SDS011;1280;49.760;9.664;2023-02-27T09:47:17;5.05;;;3.00;;
2538;SDS011;1280;49.760;9.664;2023-02-27T09:49:51;6.68;;;4.15;;
2538;SDS011;1280;49.760;9.664;2023-02-27T09:52:25;9.85;;;4.30;;
2538;SDS011;1280;49.760;9.664;2023-02-27T09:54:56;7.53;;;3.40;;
2538;SDS011;1280;49.760;9.664;2023-02-27T09:57:27;8.18;;;5.40;;
2538;SDS011;1280;49.760;9.664;2023-02-27T10:00:09;9.30;;;5.15;;
2538;SDS011;1280;49.760;9.664;2023-02-27T10:02:54;8.20;;;4.55;;
2538;SDS011;1280;49.760;9.664;2023-02-27T10:05:29;8.48;;;4.22;;
2538;SDS011;1280;49.760;9.664;2023-02-27T10:08:04;5.93;;;3.55;;
2538;SDS011;1280;49.760;9.664;2023-02-27T10:10:42;17.75;;;5.05;;
2538;SDS011;1280;49.760;9.664;2023-02-27T10:13:24;17.27;;;3.78;;
2538;SDS011;1280;49.760;9.664;2023-02-27T10:16:02;7.95;;;3.30;;
2538;SDS011;1280;49.760;9.664;2023-02-27T10:18:32;8.65;;;3.58;;
2538;SDS011;1280;49.760;9.664;2023-02-27T10:21:20;11.93;;;3.47;;
2538;SDS011;1280;49.760;9.664;2023-02-27T10:23:54;8.75;;;4.70;;
2538;SDS011;1280;49.760;9.664;2023-02-27T10:26:26;6.00;;;3.65;;
2538;SDS011;1280;49.760;9.664;2023-02-27T10:28:56;9.50;;;4.18;;
2538;SDS011;1280;49.760;9.664;2023-02-27T10:31:30;7.32;;;4.00;;
2538;SDS011;1280;49.760;9.664;2023-02-27T10:34:01;8.35;;;4.13;;
2538;SDS011;1280;49.760;9.664;2023-02-27T10:36:29;9.65;;;4.05;;
2538;SDS011;1280;49.760;9.664;2023-02-27T10:39:00;7.85;;;4.25;;
2538;SDS011;1280;49.760;9.664;2023-02-27T10:41:35;6.82;;;2.83;;
2538;SDS011;1280;49.760;9.664;2023-02-27T10:44:05;4.38;;;2.63;;
2538;SDS011;1280;49.760;9.664;2023-02-27T10:46:35;8.02;;;2.67;;
2538;SDS011;1280;49.760;9.664;2023-02-27T10:49:05;5.88;;;3.38;;
2538;SDS011;1280;49.760;9.664;2023-02-27T10:51:42;6.57;;;3.60;;
2538;SDS011;1280;49.760;9.664;2023-02-27T10:54:13;7.50;;;3.80;;
2538;SDS011;1280;49.760;9.664;2023-02-27T10:56:53;13.00;;;6.05;;
2538;SDS011;1280;49.760;9.664;2023-02-27T10:59:23;10.45;;;5.30;;
2538;SDS011;1280;49.760;9.664;2023-02-27T11:01:53;8.48;;;4.28;;
2538;SDS011;1280;49.760;9.664;2023-02-27T11:04:24;11.68;;;5.72;;
2538;SDS011;1280;49.760;9.664;2023-02-27T11:06:55;8.38;;;4.57;;
2538;SDS011;1280;49.760;9.664;2023-02-27T11:09:24;14.48;;;5.70;;
2538;SDS011;1280;49.760;9.664;2023-02-27T11:11:55;11.32;;;5.00;;
2538;SDS011;1280;49.760;9.664;2023-02-27T11:14:49;16.13;;;9.98;;
2538;SDS011;1280;49.760;9.664;2023-02-27T11:17:20;11.13;;;5.47;;
2538;SDS011;1280;49.760;9.664;2023-02-27T11:19:54;6.05;;;3.08;;
2538;SDS011;1280;49.760;9.664;2023-02-27T11:22:24;5.45;;;3.50;;
2538;SDS011;1280;49.760;9.664;2023-02-27T11:25:14;5.93;;;3.83;;
2538;SDS011;1280;49.760;9.664;2023-02-27T11:27:46;5.68;;;3.25;;
2538;SDS011;1280;49.760;9.664;2023-02-27T11:30:21;7.40;;;4.18;;
2538;SDS011;1280;49.760;9.664;2023-02-27T11:32:54;5.97;;;3.17;;
2538;SDS011;1280;49.760;9.664;2023-02-27T11:35:25;8.73;;;5.25;;
2538;SDS011;1280;49.760;9.664;2023-02-27T11:37:58;7.47;;;4.40;;
2538;SDS011;1280;49.760;9.664;2023-02-27T11:40:29;6.63;;;4.05;;
2538;SDS011;1280;49.760;9.664;2023-02-27T11:43:02;10.43;;;5.45;;
2538;SDS011;1280;49.760;9.664;2023-02-27T11:45:34;9.05;;;4.13;;
2538;SDS011;1280;49.760;9.664;2023-02-27T11:48:26;5.20;;;2.78;;
2538;SDS011;1280;49.760;9.664;2023-02-27T11:51:18;6.22;;;3.45;;
2538;SDS011;1280;49.760;9.664;2023-02-27T11:54:06;23.10;;;10.25;;
2538;SDS011;1280;49.760;9.664;2023-02-27T11:56:42;5.70;;;3.05;;
2538;SDS011;1280;49.760;9.664;2023-02-27T11:59:24;6.50;;;3.15;;
2538;SDS011;1280;49.760;9.664;2023-02-27T12:01:59;7.15;;;3.80;;
2538;SDS011;1280;49.760;9.664;2023-02-27T12:04:32;10.02;;;5.25;;
2538;SDS011;1280;49.760;9.664;2023-02-27T12:07:11;8.13;;;4.50;;
2538;SDS011;1280;49.760;9.664;2023-02-27T12:09:48;5.43;;;3.20;;
2538;SDS011;1280;49.760;9.664;2023-02-27T12:12:23;5.95;;;3.20;;
2538;SDS011;1280;49.760;9.664;2023-02-27T12:14:58;6.65;;;3.47;;
2538;SDS011;1280;49.760;9.664;2023-02-27T12:17:33;5.15;;;2.65;;
2538;SDS011;1280;49.760;9.664;2023-02-27T12:20:17;4.55;;;2.53;;
2538;SDS011;1280;49.760;9.664;2023-02-27T12:22:53;6.88;;;3.75;;
2538;SDS011;1280;49.760;9.664;2023-02-27T12:25:25;12.55;;;4.63;;
2538;SDS011;1280;49.760;9.664;2023-02-27T12:28:02;10.65;;;5.95;;
2538;SDS011;1280;49.760;9.664;2023-02-27T12:30:37;14.73;;;4.65;;
2538;SDS011;1280;49.760;9.664;2023-02-27T12:33:12;4.72;;;3.15;;
2538;SDS011;1280;49.760;9.664;2023-02-27T12:35:49;6.55;;;3.92;;
2538;SDS011;1280;49.760;9.664;2023-02-27T12:38:22;5.53;;;2.90;;
2538;SDS011;1280;49.760;9.664;2023-02-27T12:40:55;6.45;;;3.17;;
2538;SDS011;1280;49.760;9.664;2023-02-27T12:43:35;6.35;;;3.80;;
2538;SDS011;1280;49.760;9.664;2023-02-27T12:46:16;7.05;;;3.25;;
2538;SDS011;1280;49.760;9.664;2023-02-27T12:48:56;5.57;;;3.30;;
2538;SDS011;1280;49.760;9.664;2023-02-27T12:51:34;6.30;;;3.42;;
2538;SDS011;1280;49.760;9.664;2023-02-27T12:54:14;5.38;;;2.80;;
2538;SDS011;1280;49.760;9.664;2023-02-27T12:56:55;6.72;;;3.35;;
2538;SDS011;1280;49.760;9.664;2023-02-27T12:59:38;6.68;;;2.50;;
2538;SDS011;1280;49.760;9.664;2023-02-27T13:02:26;6.05;;;2.90;;
2538;SDS011;1280;49.760;9.664;2023-02-27T13:05:08;5.75;;;3.15;;
2538;SDS011;1280;49.760;9.664;2023-02-27T13:07:49;7.00;;;3.85;;
2538;SDS011;1280;49.760;9.664;2023-02-27T13:10:26;6.18;;;3.05;;
2538;SDS011;1280;49.760;9.664;2023-02-27T13:13:01;12.30;;;5.97;;
2538;SDS011;1280;49.760;9.664;2023-02-27T13:15:36;8.63;;;2.97;;
2538;SDS011;1280;49.760;9.664;2023-02-27T13:18:15;8.68;;;3.40;;
2538;SDS011;1280;49.760;9.664;2023-02-27T13:20:58;4.05;;;2.50;;
2538;SDS011;1280;49.760;9.664;2023-02-27T13:23:35;6.95;;;3.80;;
2538;SDS011;1280;49.760;9.664;2023-02-27T13:26:15;8.38;;;4.40;;
2538;SDS011;1280;49.760;9.664;2023-02-27T13:28:49;6.78;;;3.45;;
2538;SDS011;1280;49.760;9.664;2023-02-27T13:31:19;9.02;;;3.90;;
2538;SDS011;1280;49.760;9.664;2023-02-27T13:34:01;8.27;;;3.50;;
2538;SDS011;1280;49.760;9.664;2023-02-27T13:36:36;6.22;;;3.50;;
2538;SDS011;1280;49.760;9.664;2023-02-27T13:48:36;7.80;;;3.58;;
2538;SDS011;1280;49.760;9.664;2023-02-27T13:51:44;6.65;;;3.40;;
2538;SDS011;1280;49.760;9.664;2023-02-27T13:54:19;5.20;;;2.72;;
2538;SDS011;1280;49.760;9.664;2023-02-27T13:56:49;5.35;;;3.40;;
2538;SDS011;1280;49.760;9.664;2023-02-27T13:59:32;7.25;;;3.10;;
2538;SDS011;1280;49.760;9.664;2023-02-27T14:02:03;10.10;;;4.28;;
2538;SDS011;1280;49.760;9.664;2023-02-27T14:04:51;8.82;;;4.22;;
2538;SDS011;1280;49.760;9.664;2023-02-27T14:07:25;13.18;;;4.53;;
2538;SDS011;1280;49.760;9.664;2023-02-27T14:09:58;9.77;;;5.53;;
2538;SDS011;1280;49.760;9.664;2023-02-27T14:12:30;9.50;;;4.55;;
2538;SDS011;1280;49.760;9.664;2023-02-27T14:24:21;7.43;;;4.28;;
2538;SDS011;1280;49.760;9.664;2023-02-27T14:26:52;10.60;;;5.50;;
2538;SDS011;1280;49.760;9.664;2023-02-27T14:29:22;8.85;;;4.88;;
2538;SDS011;1280;49.760;9.664;2023-02-27T14:31:56;7.78;;;4.00;;
2538;SDS011;1280;49.760;9.664;2023-02-27T14:34:27;7.88;;;4.22;;
2538;SDS011;1280;49.760;9.664;2023-02-27T14:36:57;11.45;;;4.50;;
2538;SDS011;1280;49.760;9.664;2023-02-27T14:39:32;15.35;;;7.10;;
2538;SDS011;1280;49.760;9.664;2023-02-27T14:42:04;14.15;;;6.53;;
2538;SDS011;1280;49.760;9.664;2023-02-27T14:44:45;13.07;;;5.50;;
2538;SDS011;1280;49.760;9.664;2023-02-27T14:47:17;8.57;;;4.70;;
2538;SDS011;1280;49.760;9.664;2023-02-27T14:49:50;7.53;;;3.90;;
2538;SDS011;1280;49.760;9.664;2023-02-27T14:52:18;8.90;;;4.03;;
2538;SDS011;1280;49.760;9.664;2023-02-27T14:55:07;6.57;;;2.90;;
2538;SDS011;1280;49.760;9.664;2023-02-27T14:57:51;7.20;;;2.72;;
2538;SDS011;1280;49.760;9.664;2023-02-27T15:00:27;7.97;;;4.05;;
2538;SDS011;1280;49.760;9.664;2023-02-27T15:03:05;9.93;;;3.70;;
2538;SDS011;1280;49.760;9.664;2023-02-27T15:05:46;5.00;;;2.30;;
2538;SDS011;1280;49.760;9.664;2023-02-27T15:08:17;5.35;;;2.65;;
2538;SDS011;1280;49.760;9.664;2023-02-27T15:10:56;6.75;;;2.50;;
2538;SDS011;1280;49.760;9.664;2023-02-27T15:13:27;5.78;;;3.10;;
2538;SDS011;1280;49.760;9.664;2023-02-27T15:19:04;5.45;;;3.10;;
2538;SDS011;1280;49.760;9.664;2023-02-27T15:21:40;7.00;;;2.85;;
2538;SDS011;1280;49.760;9.664;2023-02-27T15:24:20;7.53;;;2.38;;
2538;SDS011;1280;49.760;9.664;2023-02-27T15:26:52;6.88;;;2.40;;
2538;SDS011;1280;49.760;9.664;2023-02-27T15:29:24;5.47;;;3.10;;
2538;SDS011;1280;49.760;9.664;2023-02-27T15:31:56;7.57;;;3.05;;
2538;SDS011;1280;49.760;9.664;2023-02-27T15:34:24;8.25;;;3.55;;
2538;SDS011;1280;49.760;9.664;2023-02-27T15:36:54;5.20;;;2.38;;
2538;SDS011;1280;49.760;9.664;2023-02-27T15:39:24;4.40;;;2.13;;
2538;SDS011;1280;49.760;9.664;2023-02-27T15:42:02;6.70;;;3.38;;
2538;SDS011;1280;49.760;9.664;2023-02-27T15:44:33;6.13;;;2.40;;
2538;SDS011;1280;49.760;9.664;2023-02-27T15:47:05;10.68;;;3.72;;
2538;SDS011;1280;49.760;9.664;2023-02-27T15:49:35;10.13;;;3.72;;
2538;SDS011;1280;49.760;9.664;2023-02-27T15:52:04;8.38;;;3.00;;
2538;SDS011;1280;49.760;9.664;2023-02-27T15:54:43;4.38;;;2.35;;
2538;SDS011;1280;49.760;9.664;2023-02-27T15:57:16;5.30;;;2.22;;
2538;SDS011;1280;49.760;9.664;2023-02-27T15:59:45;6.60;;;3.70;;
2538;SDS011;1280;49.760;9.664;2023-02-27T16:02:14;8.55;;;4.88;;
2538;SDS011;1280;49.760;9.664;2023-02-27T16:04:46;9.20;;;4.38;;
2538;SDS011;1280;49.760;9.664;2023-02-27T16:07:16;9.85;;;4.57;;
2538;SDS011;1280;49.760;9.664;2023-02-27T16:09:50;11.95;;;5.80;;
2538;SDS011;1280;49.760;9.664;2023-02-27T16:12:28;18.85;;;8.85;;
2538;SDS011;1280;49.760;9.664;2023-02-27T16:15:10;13.88;;;5.50;;
2538;SDS011;1280;49.760;9.664;2023-02-27T16:18:03;11.50;;;6.18;;
2538;SDS011;1280;49.760;9.664;2023-02-27T16:20:50;12.32;;;5.78;;
2538;SDS011;1280;49.760;9.664;2023-02-27T16:23:21;7.65;;;4.30;;
2538;SDS011;1280;49.760;9.664;2023-02-27T16:25:59;5.15;;;2.60;;